createdAt,value
2022-09-23T00:05:08.038Z,98874.09
2022-09-23T00:10:33.613Z,98876.06
2022-09-23T00:15:55.329Z,98880.84
2022-09-23T00:21:18.860Z,98876.44
2022-09-23T00:26:40.550Z,98877.72
2022-09-23T00:32:03.155Z,98876.34
2022-09-23T00:37:25.131Z,98871.16
2022-09-23T00:42:49.473Z,98871.97
2022-09-23T00:48:16.997Z,98871.22
2022-09-23T00:53:39.673Z,98860.22
2022-09-23T00:59:02.454Z,98866.44
2022-09-23T01:04:26.763Z,98855.00
2022-09-23T01:09:49.175Z,98855.38
2022-09-23T01:15:19.532Z,98853.63
2022-09-23T01:20:56.186Z,98856.06
2022-09-23T01:26:17.955Z,98854.78
2022-09-23T01:31:58.789Z,98849.94
2022-09-23T01:37:35.312Z,98843.72
2022-09-23T01:43:11.369Z,98841.28
2022-09-23T01:48:40.202Z,98831.06
2022-09-23T01:54:07.853Z,98835.84
2022-09-23T01:59:43.127Z,98839.38
2022-09-23T02:05:18.339Z,98828.47
2022-09-23T02:10:47.259Z,98827.03
2022-09-23T02:16:15.001Z,98823.06
2022-09-23T02:21:47.057Z,98818.66
2022-09-23T02:27:32.014Z,98827.91
2022-09-23T02:33:22.952Z,98825.88
2022-09-23T02:38:51.224Z,98826.13
2022-09-23T02:44:16.608Z,98820.34
2022-09-23T02:49:38.415Z,98815.44
2022-09-23T02:55:00.855Z,98808.69
2022-09-23T03:00:23.809Z,98807.97
2022-09-23T03:05:56.388Z,98800.13
2022-09-23T03:11:18.709Z,98798.00
2022-09-23T03:17:03.585Z,98800.88
2022-09-23T03:22:32.269Z,98803.47
2022-09-23T03:27:57.901Z,98801.81
2022-09-23T03:33:28.504Z,98809.63
2022-09-23T03:38:54.654Z,98800.03
2022-09-23T03:44:18.159Z,98795.97
2022-09-23T03:49:42.492Z,98786.91
2022-09-23T03:55:05.012Z,98794.25
2022-09-23T04:00:27.698Z,98787.94
2022-09-23T04:05:49.412Z,98777.13
2022-09-23T04:11:11.252Z,98771.25
2022-09-23T04:16:33.062Z,98768.31
2022-09-23T04:21:54.819Z,98768.78
2022-09-23T04:27:16.809Z,98759.44
2022-09-23T04:32:38.584Z,98754.16
2022-09-23T04:38:00.278Z,98757.19
2022-09-23T04:43:23.321Z,98764.59
2022-09-23T04:48:45.246Z,98766.44
2022-09-23T04:54:07.029Z,98760.59
2022-09-23T04:59:29.281Z,98764.66
2022-09-23T05:04:51.038Z,98769.69
2022-09-23T05:10:12.746Z,98774.53
2022-09-23T05:15:34.553Z,98784.56
2022-09-23T05:20:56.411Z,98788.41
2022-09-23T05:26:18.155Z,98779.34
2022-09-23T05:31:39.931Z,98775.91
2022-09-23T05:37:01.783Z,98786.56
2022-09-23T05:42:24.072Z,98783.03
2022-09-23T05:47:45.795Z,98783.78
2022-09-23T05:53:07.644Z,98783.63
2022-09-23T05:58:30.038Z,98783.19
2022-09-23T06:03:53.339Z,98790.50
2022-09-23T06:09:15.263Z,98789.13
2022-09-23T06:14:37.044Z,98778.97
2022-09-23T06:19:58.966Z,98776.19
2022-09-23T06:25:23.014Z,98764.31
2022-09-23T06:30:44.799Z,98762.94
2022-09-23T06:36:08.081Z,98772.06
2022-09-23T06:41:29.962Z,98765.03
2022-09-23T06:46:51.861Z,98776.31
2022-09-23T06:52:13.792Z,98769.41
2022-09-23T06:57:35.921Z,98770.53
2022-09-23T07:02:57.735Z,98778.13
2022-09-23T07:08:19.593Z,98774.69
2022-09-23T07:13:42.691Z,98773.09
2022-09-23T07:19:04.519Z,98772.25
2022-09-23T07:24:26.217Z,98764.00
2022-09-23T07:29:49.339Z,98764.63
2022-09-23T07:35:11.693Z,98767.53
2022-09-23T07:40:34.455Z,98766.63
2022-09-23T07:45:56.266Z,98763.66
2022-09-23T07:51:21.221Z,98763.19
2022-09-23T07:56:43.384Z,98761.34
2022-09-23T08:02:05.124Z,98757.06
2022-09-23T08:07:26.835Z,98755.88
2022-09-23T08:12:48.901Z,98768.91
2022-09-23T08:18:10.863Z,98764.50
2022-09-23T08:23:33.896Z,98762.91
2022-09-23T08:28:56.436Z,98767.06
2022-09-23T08:34:20.052Z,98765.00
2022-09-23T08:39:41.928Z,98755.44
2022-09-23T08:45:07.582Z,98753.16
2022-09-23T08:50:37.346Z,98756.72
2022-09-23T08:56:03.161Z,98752.78
2022-09-23T09:01:44.591Z,98753.13
2022-09-23T09:07:35.743Z,98757.06
2022-09-23T09:13:07.446Z,98752.88
2022-09-23T09:18:31.996Z,98746.84
2022-09-23T09:24:00.093Z,98742.97
2022-09-23T09:29:35.485Z,98740.59
2022-09-23T09:35:03.816Z,98727.91
2022-09-23T09:40:25.607Z,98724.56
2022-09-23T09:46:10.607Z,98712.69
2022-09-23T09:51:32.525Z,98705.06
2022-09-23T09:56:54.713Z,98694.88
2022-09-23T10:02:26.734Z,98695.97
2022-09-23T10:07:48.525Z,98690.91
2022-09-23T10:13:19.508Z,98689.41
2022-09-23T10:18:47.422Z,98693.31
2022-09-23T10:24:22.468Z,98687.91
2022-09-23T10:29:50.981Z,98675.56
2022-09-23T10:35:22.526Z,98677.66
2022-09-23T10:41:03.106Z,98676.47
2022-09-23T10:46:41.435Z,98665.19
2022-09-23T10:53:08.109Z,98659.03
2022-09-23T10:58:42.877Z,98652.91
2022-09-23T11:04:52.547Z,98648.47
2022-09-23T11:10:44.896Z,98644.81
2022-09-23T11:16:16.638Z,98639.47
2022-09-23T11:22:05.660Z,98636.25
2022-09-23T11:27:35.079Z,98631.69
2022-09-23T11:33:17.769Z,98622.47
2022-09-23T11:38:44.780Z,98612.06
2022-09-23T11:44:10.539Z,98603.44
2022-09-23T11:49:40.108Z,98599.63
2022-09-23T11:55:22.716Z,98582.59
2022-09-23T12:00:59.004Z,98580.44
2022-09-23T12:06:39.933Z,98580.91
2022-09-23T12:12:14.096Z,98581.22
2022-09-23T12:18:03.930Z,98573.72
2022-09-23T12:23:37.855Z,98570.59
2022-09-23T12:29:05.545Z,98565.28
2022-09-23T12:34:38.957Z,98565.34
2022-09-23T12:40:07.378Z,98562.91
2022-09-23T12:45:37.277Z,98551.81
2022-09-23T12:51:06.628Z,98551.44
2022-09-23T12:56:31.150Z,98549.63
2022-09-23T13:01:54.208Z,98542.41
2022-09-23T13:07:27.482Z,98539.59
2022-09-23T13:12:49.943Z,98530.00
2022-09-23T13:18:20.869Z,98523.22
2022-09-23T13:24:19.496Z,98517.44
2022-09-23T13:30:06.047Z,98511.06
2022-09-23T13:35:35.978Z,98528.25
2022-09-23T13:41:25.165Z,98517.44
2022-09-23T13:46:58.143Z,98520.50
2022-09-23T13:52:27.881Z,98512.41
2022-09-23T13:57:57.369Z,98504.66
2022-09-23T14:03:36.110Z,98496.34
2022-09-23T14:09:01.238Z,98490.72
2022-09-23T14:14:23.777Z,98491.41
2022-09-23T14:19:46.638Z,98489.47
2022-09-23T14:25:18.311Z,98488.50
2022-09-23T14:30:40.275Z,98478.78
2022-09-23T14:36:08.949Z,98477.50
2022-09-23T14:41:37.075Z,98477.50
2022-09-23T14:46:59.682Z,98464.72
2022-09-23T14:52:21.444Z,98460.31
2022-09-23T14:57:44.744Z,98456.13
2022-09-23T15:03:16.392Z,98453.84
2022-09-23T15:08:38.564Z,98451.78
2022-09-23T15:14:19.701Z,98449.63
2022-09-23T15:19:43.379Z,98451.59
2022-09-23T15:25:15.806Z,98446.56
2022-09-23T15:30:39.001Z,98450.19
2022-09-23T15:36:00.953Z,98458.81
2022-09-23T15:41:24.147Z,98456.00
2022-09-23T15:46:48.164Z,98461.81
2022-09-23T15:52:10.563Z,98460.50
2022-09-23T15:57:32.302Z,98458.91
2022-09-23T16:02:54.319Z,98460.84
2022-09-23T16:08:16.303Z,98456.22
2022-09-23T16:13:38.024Z,98456.16
2022-09-23T16:18:59.879Z,98454.75
2022-09-23T16:24:27.353Z,98447.78
2022-09-23T16:29:49.835Z,98441.56
2022-09-23T16:35:11.609Z,98453.91
2022-09-23T16:40:33.943Z,98451.78
2022-09-23T16:45:55.837Z,98452.75
2022-09-23T16:51:28.169Z,98444.69
2022-09-23T16:56:50.433Z,98460.66
2022-09-23T17:02:44.461Z,98460.09
2022-09-23T17:08:07.758Z,98457.50
2022-09-23T17:13:30.025Z,98470.75
2022-09-23T17:19:02.522Z,98466.41
2022-09-23T17:24:24.295Z,98460.78
2022-09-23T17:29:46.269Z,98459.63
2022-09-23T17:35:11.739Z,98464.56
2022-09-23T17:40:35.818Z,98468.84
2022-09-23T17:46:08.631Z,98459.66
2022-09-23T17:51:30.939Z,98460.66
2022-09-23T17:56:52.686Z,98463.53
2022-09-23T18:02:15.837Z,98460.81
2022-09-23T18:07:37.751Z,98449.91
2022-09-23T18:12:59.462Z,98452.09
2022-09-23T18:18:21.147Z,98445.53
2022-09-23T18:23:43.002Z,98453.53
2022-09-23T18:29:05.784Z,98454.28
2022-09-23T18:34:28.556Z,98450.59
2022-09-23T18:39:50.477Z,98449.63
2022-09-23T18:45:12.503Z,98454.50
2022-09-23T18:50:40.331Z,98440.88
2022-09-23T18:56:10.496Z,98441.13
2022-09-23T19:01:32.808Z,98436.94
2022-09-23T19:06:56.530Z,98429.13
2022-09-23T19:12:18.465Z,98438.09
2022-09-23T19:17:40.363Z,98445.03
2022-09-23T19:23:02.111Z,98441.69
2022-09-23T19:28:25.194Z,98446.53
2022-09-23T19:33:58.405Z,98450.13
2022-09-23T19:39:22.644Z,98445.91
2022-09-23T19:44:44.394Z,98449.97
2022-09-23T19:50:07.298Z,98443.28
2022-09-23T19:55:29.413Z,98430.00
2022-09-23T20:00:51.256Z,98423.47
2022-09-23T20:06:13.550Z,98422.63
2022-09-23T20:11:35.890Z,98415.56
2022-09-23T20:16:58.269Z,98414.47
2022-09-23T20:22:29.673Z,98409.31
2022-09-23T20:27:54.736Z,98409.47
2022-09-23T20:33:16.491Z,98411.47
2022-09-23T20:38:38.626Z,98400.34
2022-09-23T20:44:00.578Z,98408.34
2022-09-23T20:49:22.618Z,98411.31
2022-09-23T20:54:44.416Z,98406.75
2022-09-23T21:00:07.835Z,98395.75
2022-09-23T21:05:30.162Z,98403.41
2022-09-23T21:10:58.861Z,98401.25
2022-09-23T21:16:25.645Z,98395.78
2022-09-23T21:21:47.519Z,98389.91
2022-09-23T21:27:09.219Z,98398.88
2022-09-23T21:32:31.223Z,98393.97
2022-09-23T21:37:53.009Z,98405.41
2022-09-23T21:43:16.484Z,98402.31
2022-09-23T21:48:43.615Z,98403.81
2022-09-23T21:54:07.173Z,98394.88
2022-09-23T21:59:28.987Z,98406.50
2022-09-23T22:04:50.687Z,98410.69
2022-09-23T22:10:12.548Z,98400.44
2022-09-23T22:15:37.462Z,98396.16
2022-09-23T22:20:59.288Z,98389.78
2022-09-23T22:26:21.196Z,98395.03
2022-09-23T22:32:01.625Z,98400.06
2022-09-23T22:37:30.308Z,98401.47
2022-09-23T22:42:52.579Z,98397.09
2022-09-23T22:48:19.155Z,98401.09
2022-09-23T22:53:40.884Z,98394.59
2022-09-23T22:59:05.491Z,98393.59
2022-09-23T23:04:27.551Z,98395.84
2022-09-23T23:09:50.353Z,98383.69
2022-09-23T23:15:12.624Z,98373.13
2022-09-23T23:20:34.546Z,98370.91
2022-09-23T23:25:56.267Z,98370.25
2022-09-23T23:31:20.938Z,98366.03
2022-09-23T23:36:43.647Z,98359.84
2022-09-23T23:42:05.649Z,98363.59
2022-09-23T23:47:27.458Z,98359.59
2022-09-23T23:52:49.157Z,98359.66
2022-09-23T23:58:10.933Z,98350.81
